首页
METAR-TAF:

METAR-TAF

机场 :

阿伯丁机场

阿伯丁, 苏格兰

纬度: 57-12N, 经度: 002-13W, 海拔: 65米

当前天气观测

该预报发布于39分钟前的00:50 UTC
风速2节,风向东北
温度 4°C
湿度 93%
气压 1000 hPa
能见度10公里或以上

METAR: EGPD 170050Z AUTO 04002KT 9999 NCD 04/03 Q1000

时间: 02:29 (01:29 UTC)

预报

该预报发布于1小时和8分钟前的00:21 UTC
预报有效从17日的 00点(UTC)到 17日的 24点(UTC)
风速5节,风向西
能见度10公里或以上
少量云层高于3000英尺
短暂存在
从 17日的 00点(UTC)到 17日的 07点(UTC)
能見度: 4000
轻雾
成为
从 17日的 12点(UTC)到 17日的 15点(UTC)
风速10节,风向南转南东
几率 40% :
短暂存在
从 17日的 23点(UTC)到 17日的 24点(UTC)
能見度: 6000
多云层高于1400英尺
阵雨

TAF: EGPD 170021Z 1700/1724 27005KT 9999 FEW030 TEMPO 1700/1707 4000 BR BECMG 1712/1715 16010KT PROB40 TEMPO 1723/1724 6000 SHRA BKN014

超过4000个机场的气象观测和天气预报(METAR&TAF报告)。

可查询的气象台以黄色和红色小点在地图上表示。

将鼠标移到小点上方,可查看气象台名称。

然后点击查看天气观测和预报。

如需切换地图:点击带黑十字的绿色按钮放大地图;点击带横线的绿色按钮缩小地图;或者点击绿色箭头查看邻近地区的地图。


METAR-TAF: